»·PEaware :: SWA2704 KRNO-KSAN

SWA2704 :: KRNO-KSAN

FLIGHT INFORMATION

Flight Status: Arrived
Operator:
Southwest Airlines
More flights by this operator :: More flights under this callsign
Pilot: Aundrey S. (17120)
Aircraft: BOEING 737-900
(B739)
More flights by this aircraft type
Origin: KRNO Reno/Tahoe Intl
United States
Destination: KSAN San Diego Intl-Lindbergh
United States
More flights between these airports :: More routes between these airports
Route: +ZEFFR6 DARBI EHF HUULK COMIX2
File this flight plan on PilotEdge
Remarks:
Altitude:
(Current/Filed)
39,000ft
Speed:
(Current/Filed)
450kts
Departed: 19-Mar-20 07:12 PM
Arrived: 19-Mar-20 08:33 PM
Distance/Time
Traveled:
425nm/1:21
Distance/Time
To Go:
Arrived

Flight Plot

Page will automatically refresh every two minutes.


Map Options




Map Legend


Flown Route
Filed Route
Departure Airport
Arrival Airport
Navaid (VOR, NDB)
Fix

Horizontal Profiles

Position Reports

Time Latitude Longitude Heading Altitude Ground
Speed
19-Mar-20 17:54 39.504463 -119.772323 320 4423ft 0kts
19-Mar-20 17:55 39.504463 -119.772323 320 4423ft 0kts
19-Mar-20 17:56 39.504463 -119.772323 320 4423ft 0kts
19-Mar-20 17:57 39.504463 -119.772323 320 4423ft 0kts
19-Mar-20 17:58 39.504463 -119.772323 320 4423ft 0kts
19-Mar-20 17:59 39.504463 -119.772323 320 4423ft 0kts
19-Mar-20 18:00 39.504463 -119.772323 320 4423ft 0kts
19-Mar-20 18:01 39.504463 -119.772323 320 4423ft 0kts
19-Mar-20 18:02 39.504463 -119.772323 320 4423ft 0kts
19-Mar-20 18:03 39.504463 -119.772323 320 4423ft 0kts
19-Mar-20 18:04 39.504463 -119.772323 320 4423ft 0kts
19-Mar-20 18:05 39.504463 -119.772323 320 4423ft 0kts
19-Mar-20 18:06 39.504463 -119.772323 320 4423ft 0kts
19-Mar-20 18:07 39.504463 -119.772323 320 4423ft 0kts
19-Mar-20 18:08 39.504463 -119.772323 320 4423ft 0kts
19-Mar-20 18:09 39.504463 -119.772323 320 4423ft 0kts
19-Mar-20 18:10 39.504463 -119.772323 320 4423ft 0kts
19-Mar-20 18:11 39.504463 -119.772323 320 4423ft 0kts
19-Mar-20 18:12 39.504463 -119.772323 320 4423ft 0kts
19-Mar-20 18:13 39.504463 -119.772323 320 4423ft 0kts
19-Mar-20 18:14 39.504463 -119.772323 320 4423ft 0kts
19-Mar-20 18:15 39.504463 -119.772323 320 4423ft 0kts
19-Mar-20 18:16 39.504463 -119.772323 320 4423ft 0kts
19-Mar-20 18:17 39.504463 -119.772323 320 4423ft 0kts
19-Mar-20 18:18 39.504463 -119.772323 320 4423ft 0kts
19-Mar-20 18:19 39.504463 -119.772323 320 4423ft 0kts
19-Mar-20 18:20 39.504463 -119.772323 320 4423ft 0kts
19-Mar-20 18:21 39.504463 -119.772323 320 4423ft 0kts
19-Mar-20 18:22 39.504463 -119.772323 320 4423ft 0kts
19-Mar-20 18:23 39.504463 -119.772323 320 4423ft 0kts
19-Mar-20 18:24 39.504463 -119.772323 320 4423ft 0kts
19-Mar-20 18:25 39.504463 -119.772323 320 4423ft 0kts
19-Mar-20 18:26 39.504463 -119.772323 320 4423ft 0kts
19-Mar-20 18:27 39.504463 -119.772323 320 4423ft 0kts
19-Mar-20 18:28 39.504463 -119.772323 320 4423ft 0kts
19-Mar-20 18:29 39.504463 -119.772323 320 4423ft 0kts
19-Mar-20 18:30 39.504463 -119.772323 320 4423ft 0kts
19-Mar-20 18:31 39.504463 -119.772323 320 4423ft 0kts
19-Mar-20 18:32 39.504463 -119.772323 320 4423ft 0kts
19-Mar-20 18:33 39.504463 -119.772323 320 4423ft 0kts
19-Mar-20 18:34 39.504463 -119.772323 320 4423ft 0kts
19-Mar-20 18:35 39.504463 -119.772323 320 4423ft 0kts
19-Mar-20 18:36 39.504463 -119.772323 320 4423ft 0kts
19-Mar-20 18:37 39.504463 -119.772323 320 4423ft 0kts
19-Mar-20 18:38 39.504463 -119.772323 320 4423ft 0kts
19-Mar-20 18:39 39.504463 -119.772323 320 4423ft 0kts
19-Mar-20 18:40 39.504463 -119.772323 320 4423ft 0kts
19-Mar-20 18:41 39.504463 -119.772323 320 4423ft 0kts
19-Mar-20 18:42 39.504463 -119.772323 320 4423ft 0kts
19-Mar-20 18:43 39.504463 -119.772323 320 4423ft 0kts
19-Mar-20 18:44 39.504463 -119.772323 320 4423ft 0kts
19-Mar-20 18:45 39.504463 -119.772323 320 4423ft 0kts
19-Mar-20 18:46 39.504463 -119.772323 320 4423ft 0kts
19-Mar-20 18:47 39.504463 -119.772323 320 4423ft 0kts
19-Mar-20 18:48 39.504463 -119.772323 320 4423ft 0kts
19-Mar-20 18:49 39.504463 -119.772323 320 4423ft 0kts
19-Mar-20 18:50 39.504463 -119.772323 320 4423ft 0kts
19-Mar-20 18:51 39.504463 -119.772323 320 4423ft 0kts
19-Mar-20 18:52 39.504463 -119.772323 320 4423ft 0kts
19-Mar-20 18:53 39.504463 -119.772323 320 4423ft 0kts
19-Mar-20 18:54 39.504463 -119.772323 320 4423ft 0kts
19-Mar-20 18:55 39.504463 -119.772323 320 4423ft 0kts
19-Mar-20 18:56 39.504463 -119.772323 320 4423ft 0kts
19-Mar-20 18:57 39.504463 -119.772323 320 4423ft 0kts
19-Mar-20 18:58 39.504463 -119.772323 320 4423ft 0kts
19-Mar-20 18:59 39.504463 -119.772323 320 4423ft 0kts
19-Mar-20 19:00 39.504463 -119.772323 320 4423ft 0kts
19-Mar-20 19:01 39.504463 -119.772323 320 4423ft 0kts
19-Mar-20 19:02 39.504420 -119.772280 342 4423ft 1kts
19-Mar-20 19:03 39.503855 -119.772409 46 4423ft 2kts
19-Mar-20 19:04 39.503729 -119.773150 89 4423ft 2kts
19-Mar-20 19:05 39.503729 -119.773306 90 4423ft 0kts
19-Mar-20 19:06 39.503729 -119.773306 90 4423ft 0kts
19-Mar-20 19:07 39.504250 -119.771530 4 4423ft 11kts
19-Mar-20 19:08 39.508416 -119.771520 359 4423ft 16kts
19-Mar-20 19:09 39.512240 -119.771503 0 4423ft 11kts
19-Mar-20 19:10 39.513751 -119.770599 87 4423ft 3kts
19-Mar-20 19:11 39.510161 -119.769244 179 4423ft 76kts
19-Mar-20 19:12 39.466997 -119.768495 181 5119ft 194kts
19-Mar-20 19:13 39.410746 -119.769613 180 7494ft 218kts
19-Mar-20 19:14 39.346352 -119.769853 180 9709ft 250kts
19-Mar-20 19:15 39.271137 -119.768481 179 11730ft 290kts
19-Mar-20 19:16 39.188276 -119.765275 179 14291ft 305kts
19-Mar-20 19:17 39.101623 -119.761938 179 16701ft 319kts
19-Mar-20 19:18 39.011399 -119.758487 180 18940ft 330kts
19-Mar-20 19:19 38.918454 -119.754949 179 20993ft 340kts
19-Mar-20 19:20 38.822354 -119.751304 180 22832ft 350kts
19-Mar-20 19:21 38.723638 -119.747582 180 24333ft 360kts
19-Mar-20 19:23 38.622776 -119.743789 180 25816ft 367kts
19-Mar-20 19:24 38.519364 -119.739916 180 27121ft 376kts
19-Mar-20 19:25 38.413739 -119.735974 179 28442ft 383kts
19-Mar-20 19:26 38.306449 -119.731979 179 29853ft 386kts
19-Mar-20 19:27 38.200759 -119.710252 171 31255ft 386kts
19-Mar-20 19:28 38.095889 -119.685651 171 32589ft 382kts
19-Mar-20 19:29 37.991568 -119.661335 171 33654ft 380kts
19-Mar-20 19:30 37.888791 -119.637651 171 34549ft 379kts
19-Mar-20 19:31 37.784424 -119.613886 171 35061ft 380kts
19-Mar-20 19:32 37.680626 -119.590415 172 35833ft 379kts
19-Mar-20 19:33 37.577069 -119.567088 172 36405ft 380kts
19-Mar-20 19:34 37.473043 -119.543678 172 36942ft 381kts
19-Mar-20 19:35 37.369293 -119.520306 174 37221ft 387kts
19-Mar-20 19:36 37.261408 -119.496149 174 37212ft 397kts
19-Mar-20 19:37 37.152051 -119.471580 174 37421ft 400kts
19-Mar-20 19:38 37.043332 -119.447109 174 37827ft 395kts
19-Mar-20 19:39 36.936040 -119.422972 174 38176ft 389kts
19-Mar-20 19:40 36.830153 -119.399162 174 38372ft 385kts
19-Mar-20 19:41 36.725432 -119.375622 175 38489ft 382kts
19-Mar-20 19:41 36.638678 -119.356112 175 38582ft 378kts
19-Mar-20 19:43 36.519038 -119.329180 176 38627ft 372kts
19-Mar-20 19:44 36.417827 -119.306407 176 38591ft 368kts
19-Mar-20 19:44 36.334373 -119.287631 176 38562ft 364kts
19-Mar-20 19:45 36.235345 -119.265360 176 38500ft 362kts
19-Mar-20 19:47 36.117862 -119.239038 176 37958ft 374kts
19-Mar-20 19:47 36.031065 -119.219587 176 37597ft 388kts
19-Mar-20 19:48 35.922832 -119.195313 176 37172ft 408kts
19-Mar-20 19:49 35.811106 -119.170221 176 37150ft 421kts
19-Mar-20 19:50 35.693597 -119.143832 176 37149ft 436kts
19-Mar-20 19:51 35.572467 -119.116635 176 37142ft 451kts
19-Mar-20 19:52 35.449071 -119.077606 162 37151ft 477kts
19-Mar-20 19:53 35.329144 -119.010888 161 37127ft 476kts
19-Mar-20 19:54 35.209439 -118.944209 161 37129ft 475kts
19-Mar-20 19:55 35.089440 -118.877626 161 37130ft 474kts
19-Mar-20 19:56 34.969368 -118.811195 161 37132ft 473kts
19-Mar-20 19:57 34.849353 -118.744906 161 37125ft 475kts
19-Mar-20 19:58 34.729168 -118.678552 161 37123ft 475kts
19-Mar-20 19:59 34.608931 -118.612187 161 37129ft 474kts
19-Mar-20 20:00 34.492914 -118.533434 155 37151ft 479kts
19-Mar-20 20:01 34.377523 -118.451337 155 36633ft 486kts
19-Mar-20 20:02 34.262064 -118.369352 156 34485ft 482kts
19-Mar-20 20:03 34.152075 -118.291531 156 32480ft 484kts
19-Mar-20 20:04 34.038012 -118.211073 156 30521ft 485kts
19-Mar-20 20:05 33.923452 -118.130398 156 28494ft 468kts
19-Mar-20 20:06 33.813773 -118.054144 157 26387ft 452kts
19-Mar-20 20:07 33.706030 -117.982723 157 24304ft 437kts
19-Mar-20 20:08 33.601371 -117.913621 157 22298ft 421kts
19-Mar-20 20:09 33.500883 -117.846569 155 20295ft 406kts
19-Mar-20 20:10 33.408736 -117.772996 143 18303ft 396kts
19-Mar-20 20:11 33.328022 -117.686598 142 16306ft 381kts
19-Mar-20 20:12 33.250868 -117.604146 141 14309ft 364kts
19-Mar-20 20:13 33.177467 -117.526604 141 12653ft 341kts
19-Mar-20 20:14 33.105930 -117.456906 147 11717ft 325kts
19-Mar-20 20:15 33.034776 -117.397519 147 10627ft 299kts
19-Mar-20 20:16 32.968722 -117.342139 148 9658ft 284kts
19-Mar-20 20:17 32.908439 -117.291674 148 8983ft 261kts
19-Mar-20 20:18 32.848782 -117.242142 148 7779ft 261kts
19-Mar-20 20:19 32.805352 -117.179257 102 6605ft 269kts
19-Mar-20 20:20 32.794643 -117.096802 101 5137ft 240kts
19-Mar-20 20:21 32.785296 -117.020320 100 4997ft 226kts
19-Mar-20 20:22 32.776387 -116.946726 100 5009ft 226kts
19-Mar-20 20:23 32.764442 -116.873434 127 5002ft 220kts
19-Mar-20 20:24 32.710611 -116.860821 190 5001ft 209kts
19-Mar-20 20:25 32.666506 -116.891730 255 4818ft 192kts
19-Mar-20 20:26 32.676392 -116.954331 282 3875ft 186kts
19-Mar-20 20:27 32.689458 -117.008226 282 3080ft 151kts
19-Mar-20 20:28 32.700918 -117.055509 282 2449ft 150kts
19-Mar-20 20:29 32.712456 -117.102855 283 1567ft 151kts
19-Mar-20 20:30 32.724439 -117.152066 284 545ft 154kts
19-Mar-20 20:31 32.734936 -117.195444 286 20ft 85kts
19-Mar-20 20:32 32.736042 -117.201546 224 17ft 0kts
19-Mar-20 20:33 32.735465 -117.201545 132 17ft 7kts
19-Mar-20 20:34 32.734159 -117.196914 126 17ft 7kts
19-Mar-20 20:35 32.733362 -117.196479 172 18ft 0kts

Navigation Log

Ident Type
Flight plan parsing failed, navigation log unavailable